< < Back
Terminal Aerodrome Forecast


Current Version              Previous Versions:   1  2  3  4  5  6  7  8  9  

Terminal Aerodrome Forecast

023
FTUS44 KOHX 152300
TAFCSV
TAF
KCSV 152336Z 1600/1624 35012G19KT P6SM BKN045
     FM160500 08003KT P6SM SKC
     FM161500 11008G18KT P6SM SKC
     FM162100 17008G18KT P6SM SKC=



Latest METAR

781
SAUS70 KWBC 161300 RRD
MTRCSV
METAR KCSV 161253Z AUTO 07009G14KT 10SM CLR 00/M06 A3027 RMK AO2 SLP263
T00001056


USA.gov is the U.S. government's official web portal to all federal, state and local government web resources and services.